createdAt,value
2017-12-26T00:00:31.975Z,4.12
2017-12-26T00:01:31.964Z,4.2
2017-12-26T00:02:31.958Z,4.09
2017-12-26T00:03:31.932Z,4.05
2017-12-26T00:04:31.655Z,4.09
2017-12-26T00:05:31.907Z,4.14
2017-12-26T00:06:31.893Z,4.12
2017-12-26T00:07:31.875Z,4.08
2017-12-26T00:08:31.866Z,4.08
2017-12-26T00:09:31.854Z,4.05
2017-12-26T00:10:31.850Z,4
2017-12-26T00:11:31.883Z,4.06
2017-12-26T00:12:31.813Z,4.02
2017-12-26T00:13:31.845Z,3.98
2017-12-26T00:14:31.776Z,4.06
2017-12-26T00:15:31.777Z,3.98
2017-12-26T00:16:31.758Z,3.96
2017-12-26T00:17:31.750Z,3.94
2017-12-26T00:18:31.730Z,4
2017-12-26T00:19:31.703Z,3.91
2017-12-26T00:20:31.699Z,3.94
2017-12-26T00:21:31.679Z,3.98
2017-12-26T00:22:31.663Z,3.87
2017-12-26T00:23:31.666Z,3.94
2017-12-26T00:24:31.646Z,3.96
2017-12-26T00:25:31.626Z,3.87
2017-12-26T00:26:31.613Z,3.84
2017-12-26T00:27:31.387Z,3.91
2017-12-26T00:28:31.595Z,3.73
2017-12-26T00:29:31.573Z,3.83
2017-12-26T00:30:31.554Z,3.84
2017-12-26T00:31:31.538Z,3.72
2017-12-26T00:32:31.271Z,3.75
2017-12-26T00:33:31.526Z,3.83
2017-12-26T00:34:31.493Z,3.75
2017-12-26T00:35:31.489Z,3.78
2017-12-26T00:36:31.486Z,3.78
2017-12-26T00:37:31.484Z,3.8
2017-12-26T00:38:31.437Z,3.79
2017-12-26T00:39:31.442Z,3.75
2017-12-26T00:40:31.425Z,3.78
2017-12-26T00:41:31.158Z,3.72
2017-12-26T00:42:31.388Z,3.72
2017-12-26T00:43:31.381Z,3.76
2017-12-26T00:44:31.369Z,3.69
2017-12-26T00:45:31.353Z,3.75
2017-12-26T00:46:31.339Z,3.73
2017-12-26T00:47:31.318Z,3.6
2017-12-26T00:48:31.309Z,3.69
2017-12-26T00:49:31.288Z,3.66
2017-12-26T00:50:31.282Z,3.73
2017-12-26T00:51:31.269Z,3.66
2017-12-26T00:52:31.254Z,3.68
2017-12-26T00:53:31.249Z,3.65
2017-12-26T00:54:31.225Z,3.66
2017-12-26T00:55:31.204Z,3.69
2017-12-26T00:56:31.205Z,3.65
2017-12-26T00:57:31.191Z,3.69
2017-12-26T00:58:31.172Z,3.6
2017-12-26T00:59:31.148Z,3.69
2017-12-26T01:00:30.885Z,3.69
2017-12-26T01:01:31.125Z,3.65
2017-12-26T01:02:31.118Z,3.65
2017-12-26T01:03:31.097Z,3.6
2017-12-26T01:04:31.087Z,3.65
2017-12-26T01:05:31.072Z,3.69
2017-12-26T01:06:31.050Z,3.65
2017-12-26T01:07:31.047Z,3.65
2017-12-26T01:08:31.020Z,3.66
2017-12-26T01:09:31.025Z,3.54
2017-12-26T01:10:31.002Z,3.65
2017-12-26T01:11:30.730Z,3.57
2017-12-26T01:12:30.971Z,3.52
2017-12-26T01:13:30.948Z,3.55
2017-12-26T01:14:30.947Z,3.57
2017-12-26T01:15:30.941Z,3.6
2017-12-26T01:16:30.905Z,3.58
2017-12-26T01:17:30.892Z,3.52
2017-12-26T01:18:30.899Z,3.57
2017-12-26T01:19:30.884Z,3.51
2017-12-26T01:20:30.608Z,3.47
2017-12-26T01:21:30.838Z,3.57
2017-12-26T01:22:30.825Z,3.51
2017-12-26T01:23:30.825Z,3.52
2017-12-26T01:24:30.805Z,3.48
2017-12-26T01:25:30.778Z,3.48
2017-12-26T01:26:30.780Z,3.51
2017-12-26T01:27:30.755Z,3.5
2017-12-26T01:28:30.754Z,3.52
2017-12-26T01:29:30.742Z,3.48
2017-12-26T01:30:30.708Z,3.47
2017-12-26T01:31:30.696Z,3.5
2017-12-26T01:32:30.678Z,3.5
2017-12-26T01:33:30.675Z,3.33
2017-12-26T01:34:30.657Z,3.45
2017-12-26T01:35:30.643Z,3.39
2017-12-26T01:36:30.626Z,3.39
2017-12-26T01:37:30.609Z,3.5
2017-12-26T01:38:30.352Z,3.42
2017-12-26T01:39:30.332Z,3.48
2017-12-26T01:40:30.632Z,3.48
2017-12-26T01:41:30.557Z,3.45
2017-12-26T01:42:30.549Z,3.39
2017-12-26T01:43:30.524Z,3.35
2017-12-26T01:44:30.522Z,3.35
2017-12-26T01:45:30.495Z,3.4
2017-12-26T01:46:30.222Z,3.36
2017-12-26T01:47:30.473Z,3.39
2017-12-26T01:48:30.451Z,3.36
2017-12-26T01:49:30.439Z,3.36
2017-12-26T01:50:30.425Z,3.42
2017-12-26T01:51:30.408Z,3.31
2017-12-26T01:52:30.468Z,3.5
2017-12-26T01:53:30.388Z,3.32
2017-12-26T01:54:30.367Z,3.32
2017-12-26T01:55:30.355Z,3.33
2017-12-26T01:56:30.350Z,3.29
2017-12-26T01:57:30.327Z,3.24
2017-12-26T01:58:30.314Z,3.24
2017-12-26T01:59:30.306Z,3.29
2017-12-26T02:00:30.293Z,3.33
2017-12-26T02:01:30.012Z,3.24
2017-12-26T02:02:30.256Z,3.29
2017-12-26T02:03:30.249Z,3.26
2017-12-26T02:04:30.223Z,3.29
2017-12-26T02:05:30.245Z,3.28
2017-12-26T02:06:30.190Z,3.33
2017-12-26T02:07:29.927Z,3.28
2017-12-26T02:08:30.183Z,3.29
2017-12-26T02:09:30.165Z,3.2
2017-12-26T02:10:30.144Z,3.29
2017-12-26T02:11:30.124Z,3.24
2017-12-26T02:12:30.114Z,3.29
2017-12-26T02:13:30.108Z,3.23
2017-12-26T02:14:29.830Z,3.2
2017-12-26T02:15:30.073Z,3.24
2017-12-26T02:16:29.816Z,3.23
2017-12-26T02:17:30.043Z,3.15
2017-12-26T02:18:30.039Z,3.21
2017-12-26T02:19:30.024Z,3.17
2017-12-26T02:20:30.008Z,3.1
2017-12-26T02:21:29.988Z,3.05
2017-12-26T02:22:29.964Z,3.2
2017-12-26T02:23:29.951Z,3.14
2017-12-26T02:24:29.948Z,3.13
2017-12-26T02:25:29.931Z,3.08
2017-12-26T02:26:29.913Z,3.1
2017-12-26T02:27:29.909Z,3.18
2017-12-26T02:28:29.620Z,3.13
2017-12-26T02:29:29.873Z,3.03
2017-12-26T02:30:29.867Z,3.05
2017-12-26T02:31:29.835Z,3.03
2017-12-26T02:32:29.822Z,3.1
2017-12-26T02:33:29.838Z,3.03
2017-12-26T02:34:29.801Z,3.06
2017-12-26T02:35:29.783Z,2.95
2017-12-26T02:36:29.772Z,2.93
2017-12-26T02:37:29.755Z,3.06
2017-12-26T02:38:29.742Z,2.95
2017-12-26T02:39:29.727Z,2.97
2017-12-26T02:40:29.716Z,3.03
2017-12-26T02:41:29.702Z,2.96
2017-12-26T02:42:29.677Z,2.85
2017-12-26T02:43:29.670Z,2.99
2017-12-26T02:44:29.661Z,2.82
2017-12-26T02:45:29.637Z,2.93
2017-12-26T02:46:29.617Z,2.93
2017-12-26T02:47:29.610Z,2.79
2017-12-26T02:48:29.608Z,2.85
2017-12-26T02:49:29.313Z,2.82
2017-12-26T02:50:29.569Z,2.84
2017-12-26T02:51:29.560Z,2.84
2017-12-26T02:52:29.526Z,2.82
2017-12-26T02:53:29.259Z,2.87
2017-12-26T02:54:29.499Z,2.85
2017-12-26T02:55:29.507Z,2.78
2017-12-26T02:56:29.477Z,2.72
2017-12-26T02:57:29.462Z,2.75
2017-12-26T02:58:29.453Z,2.74
2017-12-26T02:59:29.435Z,2.71
2017-12-26T03:00:29.412Z,2.77
2017-12-26T03:01:29.399Z,2.74
2017-12-26T03:02:29.387Z,2.66
2017-12-26T03:03:29.371Z,2.72
2017-12-26T03:04:29.362Z,2.72
2017-12-26T03:05:29.342Z,2.6
2017-12-26T03:06:29.332Z,2.61
2017-12-26T03:07:29.323Z,2.59
2017-12-26T03:08:29.308Z,2.61
2017-12-26T03:09:29.289Z,2.57
2017-12-26T03:10:29.277Z,2.61
2017-12-26T03:11:29.008Z,2.64
2017-12-26T03:12:28.978Z,2.6
2017-12-26T03:13:29.236Z,2.64
2017-12-26T03:14:28.963Z,2.63
2017-12-26T03:15:29.190Z,2.6
2017-12-26T03:16:29.188Z,2.53
2017-12-26T03:17:28.914Z,2.56
2017-12-26T03:18:29.153Z,2.59
2017-12-26T03:19:29.146Z,2.56
2017-12-26T03:20:29.131Z,2.6
2017-12-26T03:21:29.101Z,2.56
2017-12-26T03:22:28.839Z,2.54
2017-12-26T03:23:28.827Z,2.54
2017-12-26T03:24:29.064Z,2.53
2017-12-26T03:25:29.040Z,2.53
2017-12-26T03:26:29.025Z,2.46
2017-12-26T03:27:29.012Z,2.53
2017-12-26T03:28:28.749Z,2.54
2017-12-26T03:29:28.994Z,2.49
2017-12-26T03:30:28.976Z,2.54
2017-12-26T03:31:28.961Z,2.59
2017-12-26T03:32:28.945Z,2.59
2017-12-26T03:33:28.938Z,2.52
2017-12-26T03:34:28.906Z,2.48
2017-12-26T03:35:28.901Z,2.59
2017-12-26T03:36:28.878Z,2.48
2017-12-26T03:37:28.869Z,2.53
2017-12-26T03:38:28.859Z,2.59
2017-12-26T03:39:28.854Z,2.6
2017-12-26T03:40:28.829Z,2.63
2017-12-26T03:41:28.811Z,2.56
2017-12-26T03:42:28.797Z,2.59
2017-12-26T03:43:28.798Z,2.59
2017-12-26T03:44:28.770Z,2.6
2017-12-26T03:45:28.761Z,2.56
2017-12-26T03:46:28.471Z,2.53
2017-12-26T03:47:28.713Z,2.52
2017-12-26T03:48:28.752Z,2.48
2017-12-26T03:49:28.684Z,2.46
2017-12-26T03:50:28.680Z,2.53
2017-12-26T03:51:28.653Z,2.48
2017-12-26T03:52:28.644Z,2.52
2017-12-26T03:53:28.637Z,2.42
2017-12-26T03:54:28.631Z,2.49
2017-12-26T03:55:28.604Z,2.45
2017-12-26T03:56:28.591Z,2.48
2017-12-26T03:57:28.579Z,2.49
2017-12-26T03:58:28.563Z,2.41
2017-12-26T03:59:28.787Z,2.38
2017-12-26T04:00:28.266Z,2.41
2017-12-26T04:01:28.521Z,2.36
2017-12-26T04:02:28.502Z,2.38
2017-12-26T04:03:28.492Z,2.38
2017-12-26T04:04:28.477Z,2.38
2017-12-26T04:05:28.456Z,2.36
2017-12-26T04:06:28.442Z,2.35
2017-12-26T04:07:28.427Z,2.28
2017-12-26T04:08:28.158Z,2.35
2017-12-26T04:09:28.392Z,2.39
2017-12-26T04:10:28.384Z,2.35
2017-12-26T04:11:28.364Z,2.36
2017-12-26T04:12:28.343Z,2.36
2017-12-26T04:13:28.324Z,2.25
2017-12-26T04:14:28.322Z,2.36
2017-12-26T04:15:28.053Z,2.3
2017-12-26T04:16:28.297Z,2.3
2017-12-26T04:17:28.266Z,2.36
2017-12-26T04:18:28.271Z,2.35
2017-12-26T04:19:28.238Z,2.25
2017-12-26T04:20:28.234Z,2.35
2017-12-26T04:21:27.960Z,2.34
2017-12-26T04:22:28.197Z,2.23
2017-12-26T04:23:28.176Z,2.35
2017-12-26T04:24:28.169Z,2.21
2017-12-26T04:25:28.154Z,2.27
2017-12-26T04:26:28.135Z,2.2
2017-12-26T04:27:28.122Z,2.24
2017-12-26T04:28:28.102Z,2.28
2017-12-26T04:29:28.096Z,2.21
2017-12-26T04:30:28.077Z,2.17
2017-12-26T04:31:28.073Z,2.31
2017-12-26T04:32:28.048Z,2.31
2017-12-26T04:33:28.029Z,2.35
2017-12-26T04:34:28.018Z,2.23
2017-12-26T04:35:27.996Z,2.21
2017-12-26T04:36:27.990Z,2.25
2017-12-26T04:37:27.974Z,2.34
2017-12-26T04:38:27.952Z,2.36
2017-12-26T04:39:27.942Z,2.36
2017-12-26T04:40:27.938Z,2.3
2017-12-26T04:41:27.911Z,2.24
2017-12-26T04:42:27.889Z,2.23
2017-12-26T04:43:27.945Z,2.23
2017-12-26T04:44:27.858Z,2.27
2017-12-26T04:45:27.857Z,2.31
2017-12-26T04:46:27.843Z,2.34
2017-12-26T04:47:27.837Z,2.24
2017-12-26T04:48:27.816Z,2.3
2017-12-26T04:49:27.803Z,2.31
2017-12-26T04:50:27.786Z,2.27
2017-12-26T04:51:27.765Z,2.27
2017-12-26T04:52:27.756Z,2.23
2017-12-26T04:53:27.732Z,2.21
2017-12-26T04:54:27.707Z,2.25
2017-12-26T04:55:27.696Z,2.27
2017-12-26T04:56:27.425Z,2.24
2017-12-26T04:57:27.414Z,2.23
2017-12-26T04:58:27.658Z,2.25
2017-12-26T04:59:27.643Z,2.25
2017-12-26T05:00:27.629Z,2.25
2017-12-26T05:01:27.618Z,2.21
2017-12-26T05:02:27.589Z,2.2
2017-12-26T05:03:27.580Z,2.28
2017-12-26T05:04:27.607Z,2.38
2017-12-26T05:05:27.560Z,2.23
2017-12-26T05:06:27.537Z,2.24
2017-12-26T05:07:27.516Z,2.31
2017-12-26T05:08:27.499Z,2.35
2017-12-26T05:09:27.499Z,2.28
2017-12-26T05:10:27.490Z,2.36
2017-12-26T05:11:27.460Z,2.24
2017-12-26T05:12:27.440Z,2.36
2017-12-26T05:13:27.425Z,2.39
2017-12-26T05:14:27.417Z,2.39
2017-12-26T05:15:27.412Z,2.36
2017-12-26T05:16:27.387Z,2.38
2017-12-26T05:17:27.379Z,2.35
2017-12-26T05:18:27.353Z,2.35
2017-12-26T05:19:27.347Z,2.39
2017-12-26T05:20:27.327Z,2.42
2017-12-26T05:21:27.312Z,2.38
2017-12-26T05:22:27.298Z,2.43
2017-12-26T05:23:27.281Z,2.36
2017-12-26T05:24:27.276Z,2.38
2017-12-26T05:25:27.255Z,2.36
2017-12-26T05:26:27.236Z,2.39
2017-12-26T05:27:27.217Z,2.45
2017-12-26T05:28:27.196Z,2.39
2017-12-26T05:29:27.180Z,2.53
2017-12-26T05:30:27.164Z,2.53
2017-12-26T05:31:27.155Z,2.41
2017-12-26T05:32:27.140Z,2.53
2017-12-26T05:33:27.136Z,2.54
2017-12-26T05:34:27.118Z,2.56
2017-12-26T05:35:27.113Z,2.61
2017-12-26T05:36:27.084Z,2.56
2017-12-26T05:37:27.082Z,2.56
2017-12-26T05:38:27.046Z,2.59
2017-12-26T05:39:27.033Z,2.61
2017-12-26T05:40:27.031Z,2.57
2017-12-26T05:41:27.008Z,2.61
2017-12-26T05:42:26.987Z,2.64
2017-12-26T05:43:26.970Z,2.69
2017-12-26T05:44:26.968Z,2.66
2017-12-26T05:45:26.940Z,2.72
2017-12-26T05:46:26.937Z,2.67
2017-12-26T05:47:26.911Z,2.72
2017-12-26T05:48:26.904Z,2.74
2017-12-26T05:49:26.894Z,2.64
2017-12-26T05:50:26.886Z,2.66
2017-12-26T05:51:26.850Z,2.82
2017-12-26T05:52:26.837Z,2.85
2017-12-26T05:53:26.819Z,2.85
2017-12-26T05:54:26.825Z,2.82
2017-12-26T05:55:26.795Z,2.82
2017-12-26T05:56:26.787Z,2.82
2017-12-26T05:57:26.778Z,2.85
2017-12-26T05:58:26.747Z,2.85
2017-12-26T05:59:26.741Z,2.9
2017-12-26T06:00:26.726Z,2.95
2017-12-26T06:01:26.448Z,2.93
2017-12-26T06:02:26.696Z,2.96
2017-12-26T06:03:26.417Z,2.96
2017-12-26T06:04:26.671Z,2.92
2017-12-26T06:05:26.652Z,2.95
2017-12-26T06:06:26.374Z,2.99
2017-12-26T06:07:26.614Z,2.96
2017-12-26T06:08:26.606Z,3
2017-12-26T06:09:26.594Z,3
2017-12-26T06:10:26.564Z,3.08
2017-12-26T06:11:26.571Z,3.06
2017-12-26T06:12:26.545Z,3.13
2017-12-26T06:13:26.536Z,3.1
2017-12-26T06:14:26.537Z,3.15
2017-12-26T06:15:26.492Z,3.15
2017-12-26T06:16:26.477Z,3.11
2017-12-26T06:17:26.481Z,3.15
2017-12-26T06:18:26.459Z,3.21
2017-12-26T06:19:26.441Z,3.23
2017-12-26T06:20:26.420Z,3.24
2017-12-26T06:21:26.406Z,3.29
2017-12-26T06:22:26.405Z,3.33
2017-12-26T06:23:26.376Z,3.29
2017-12-26T06:24:26.361Z,3.43
2017-12-26T06:25:26.352Z,3.42
2017-12-26T06:26:26.331Z,3.39
2017-12-26T06:27:26.325Z,3.33
2017-12-26T06:28:26.305Z,3.45
2017-12-26T06:29:26.306Z,3.55
2017-12-26T06:30:26.283Z,3.52
2017-12-26T06:31:26.258Z,3.57
2017-12-26T06:32:26.246Z,3.52
2017-12-26T06:33:26.229Z,3.51
2017-12-26T06:34:26.228Z,3.62
2017-12-26T06:35:26.642Z,3.6
2017-12-26T06:36:26.199Z,3.68
2017-12-26T06:37:26.216Z,3.66
2017-12-26T06:38:25.909Z,3.62
2017-12-26T06:39:25.892Z,3.65
2017-12-26T06:40:25.871Z,3.69
2017-12-26T06:41:26.121Z,3.69
2017-12-26T06:42:25.853Z,3.69
2017-12-26T06:43:26.093Z,3.66
2017-12-26T06:44:26.133Z,3.73
2017-12-26T06:45:26.055Z,3.69
2017-12-26T06:46:25.786Z,3.7
2017-12-26T06:47:26.040Z,3.73
2017-12-26T06:48:26.013Z,3.69
2017-12-26T06:49:25.998Z,3.7
2017-12-26T06:50:25.725Z,3.75
2017-12-26T06:51:25.978Z,3.8
2017-12-26T06:52:25.967Z,3.79
2017-12-26T06:53:25.951Z,3.78
2017-12-26T06:54:25.944Z,3.8
2017-12-26T06:55:25.662Z,3.83
2017-12-26T06:56:25.905Z,3.8
2017-12-26T06:57:25.895Z,3.75
2017-12-26T06:58:25.875Z,3.76
2017-12-26T06:59:25.870Z,3.8
2017-12-26T07:00:25.844Z,3.86
2017-12-26T07:01:25.835Z,3.94
2017-12-26T07:02:25.829Z,3.83
2017-12-26T07:03:25.814Z,3.86
2017-12-26T07:04:25.806Z,3.87
2017-12-26T07:05:25.772Z,3.9
2017-12-26T07:06:25.767Z,3.8
2017-12-26T07:07:25.747Z,3.79
2017-12-26T07:08:25.473Z,3.83
2017-12-26T07:09:25.724Z,3.9
2017-12-26T07:10:25.459Z,3.87
2017-12-26T07:11:25.699Z,3.93
2017-12-26T07:12:25.413Z,3.9
2017-12-26T07:13:25.664Z,3.83
2017-12-26T07:14:25.659Z,3.86
2017-12-26T07:15:25.626Z,3.87
2017-12-26T07:16:25.635Z,3.93
2017-12-26T07:17:25.604Z,3.9
2017-12-26T07:18:25.585Z,3.91
2017-12-26T07:19:25.589Z,3.86
2017-12-26T07:20:25.567Z,3.84
2017-12-26T07:21:25.543Z,3.83
2017-12-26T07:22:25.528Z,3.84
2017-12-26T07:23:25.519Z,3.88
2017-12-26T07:24:25.508Z,3.84
2017-12-26T07:25:25.485Z,3.87
2017-12-26T07:26:25.220Z,3.87
2017-12-26T07:27:25.457Z,3.83
2017-12-26T07:28:25.445Z,3.84
2017-12-26T07:29:25.430Z,3.91
2017-12-26T07:30:25.425Z,3.93
2017-12-26T07:31:25.403Z,3.91
2017-12-26T07:32:25.388Z,3.91
2017-12-26T07:33:25.395Z,3.91
2017-12-26T07:34:25.367Z,3.93
2017-12-26T07:35:25.348Z,3.96
2017-12-26T07:36:25.342Z,3.97
2017-12-26T07:37:25.328Z,3.98
2017-12-26T07:38:25.311Z,3.97
2017-12-26T07:39:25.306Z,3.91
2017-12-26T07:40:25.282Z,3.96
2017-12-26T07:41:25.272Z,3.96
2017-12-26T07:42:24.990Z,3.91
2017-12-26T07:43:25.239Z,3.97
2017-12-26T07:44:25.228Z,3.98
2017-12-26T07:45:25.268Z,3.98
2017-12-26T07:46:25.197Z,4.06
2017-12-26T07:47:25.187Z,4
2017-12-26T07:48:25.167Z,4.09
2017-12-26T07:49:25.165Z,3.98
2017-12-26T07:50:24.880Z,4.09
2017-12-26T07:51:25.117Z,4.11
2017-12-26T07:52:25.147Z,4.22
2017-12-26T07:53:25.098Z,4.27
2017-12-26T07:54:25.087Z,4.26
2017-12-26T07:55:25.065Z,4.36
2017-12-26T07:56:25.057Z,4.34
2017-12-26T07:57:25.043Z,4.4
2017-12-26T07:58:25.026Z,4.36
2017-12-26T07:59:25.015Z,4.33
2017-12-26T08:00:24.740Z,4.5
2017-12-26T08:01:25.007Z,4.47
2017-12-26T08:02:24.974Z,4.5
2017-12-26T08:03:24.958Z,4.52
2017-12-26T08:04:24.947Z,4.65
2017-12-26T08:05:24.677Z,4.59
2017-12-26T08:06:24.926Z,4.7
2017-12-26T08:07:24.909Z,4.69
2017-12-26T08:08:24.896Z,4.67
2017-12-26T08:09:24.869Z,4.77
2017-12-26T08:10:24.872Z,4.66
2017-12-26T08:11:24.865Z,4.72
2017-12-26T08:12:24.830Z,4.77
2017-12-26T08:13:24.827Z,4.8
2017-12-26T08:14:24.804Z,4.78
2017-12-26T08:15:24.801Z,4.78
2017-12-26T08:16:24.775Z,4.82
2017-12-26T08:17:24.768Z,4.91
2017-12-26T08:18:24.760Z,4.89
2017-12-26T08:19:24.751Z,4.88
2017-12-26T08:20:24.730Z,4.96
2017-12-26T08:21:24.726Z,4.96
2017-12-26T08:22:24.696Z,4.96
2017-12-26T08:23:24.689Z,5.02
2017-12-26T08:24:24.686Z,4.99
2017-12-26T08:25:24.671Z,5.07
2017-12-26T08:26:24.665Z,5.03
2017-12-26T08:27:24.642Z,5.13
2017-12-26T08:28:24.635Z,5.12
2017-12-26T08:29:24.612Z,5.21
2017-12-26T08:30:24.592Z,5.21
2017-12-26T08:31:24.591Z,5.17
2017-12-26T08:32:24.566Z,5.24
2017-12-26T08:33:24.552Z,5.3
2017-12-26T08:34:24.549Z,5.28
2017-12-26T08:35:24.523Z,5.35
2017-12-26T08:36:24.521Z,5.36
2017-12-26T08:37:24.513Z,5.42
2017-12-26T08:38:24.504Z,5.49
2017-12-26T08:39:24.789Z,5.46
2017-12-26T08:40:24.467Z,5.6
2017-12-26T08:41:24.460Z,5.58
2017-12-26T08:42:24.434Z,5.58
2017-12-26T08:43:24.434Z,5.58
2017-12-26T08:44:24.411Z,5.6
2017-12-26T08:45:24.399Z,5.71
2017-12-26T08:46:24.391Z,5.71
2017-12-26T08:47:24.388Z,5.75
2017-12-26T08:48:24.375Z,5.74
2017-12-26T08:49:24.356Z,5.82
2017-12-26T08:50:24.363Z,5.89
2017-12-26T08:51:24.334Z,5.81
2017-12-26T08:52:24.308Z,5.97
2017-12-26T08:53:24.301Z,5.93
2017-12-26T08:54:24.028Z,6.03
2017-12-26T08:55:24.286Z,6.09
2017-12-26T08:56:24.000Z,5.96
2017-12-26T08:57:24.252Z,6.09
2017-12-26T08:58:24.231Z,6.09
2017-12-26T08:59:23.981Z,6.09
2017-12-26T09:00:24.222Z,6.11
2017-12-26T09:01:24.195Z,6.14
2017-12-26T09:02:24.197Z,6.14
2017-12-26T09:03:24.169Z,6.09
2017-12-26T09:04:24.161Z,6.12
2017-12-26T09:05:24.160Z,6.18
2017-12-26T09:06:24.149Z,6.25
2017-12-26T09:07:24.142Z,6.21
2017-12-26T09:08:24.109Z,6.17
2017-12-26T09:09:24.096Z,6.21
2017-12-26T09:10:24.102Z,6.17
2017-12-26T09:11:23.827Z,6.25
2017-12-26T09:12:24.060Z,6.11
2017-12-26T09:13:24.049Z,6.12
2017-12-26T09:14:23.805Z,6.14
2017-12-26T09:15:24.050Z,6.18
2017-12-26T09:16:24.015Z,6.12
2017-12-26T09:17:23.751Z,6.15
2017-12-26T09:18:24.001Z,6.09
2017-12-26T09:19:23.972Z,6.15
2017-12-26T09:20:23.968Z,6.08
2017-12-26T09:21:23.962Z,6.09
2017-12-26T09:22:23.947Z,6.12
2017-12-26T09:23:23.936Z,6.12
2017-12-26T09:24:23.920Z,6.11
2017-12-26T09:25:23.901Z,6.03
2017-12-26T09:26:23.892Z,6.12
2017-12-26T09:27:23.885Z,6.11
2017-12-26T09:28:23.882Z,6.12
2017-12-26T09:29:23.863Z,6.11
2017-12-26T09:30:23.842Z,6.17
2017-12-26T09:31:23.842Z,6.14
2017-12-26T09:32:23.828Z,6.18
2017-12-26T09:33:23.812Z,6.15
2017-12-26T09:34:23.794Z,6.17
2017-12-26T09:35:23.778Z,6.19
2017-12-26T09:36:23.786Z,6.22
2017-12-26T09:37:23.503Z,6.25
2017-12-26T09:38:23.743Z,6.22
2017-12-26T09:39:23.751Z,6.17
2017-12-26T09:40:23.721Z,6.22
2017-12-26T09:41:23.706Z,6.38
2017-12-26T09:42:23.706Z,6.38
2017-12-26T09:43:23.681Z,6.37
2017-12-26T09:44:23.672Z,6.34
2017-12-26T09:45:23.676Z,6.37
2017-12-26T09:46:23.445Z,6.43
2017-12-26T09:47:23.384Z,6.46
2017-12-26T09:48:23.645Z,6.43
2017-12-26T09:49:23.617Z,6.44
2017-12-26T09:50:23.615Z,6.49
2017-12-26T09:51:23.326Z,6.49
2017-12-26T09:52:23.586Z,6.54
2017-12-26T09:53:23.569Z,6.54
2017-12-26T09:54:23.556Z,6.66
2017-12-26T09:55:23.548Z,6.7
2017-12-26T09:56:23.524Z,6.7
2017-12-26T09:57:23.528Z,6.74
2017-12-26T09:58:23.521Z,6.73
2017-12-26T09:59:23.496Z,6.81
2017-12-26T10:00:23.492Z,6.77
2017-12-26T10:01:23.475Z,6.87
2017-12-26T10:02:23.197Z,6.88
2017-12-26T10:03:23.450Z,6.8
2017-12-26T10:04:23.429Z,6.94
2017-12-26T10:05:23.428Z,6.88
2017-12-26T10:06:23.414Z,6.99
2017-12-26T10:07:23.397Z,6.92
2017-12-26T10:08:23.401Z,6.98
2017-12-26T10:09:23.381Z,6.98
2017-12-26T10:10:23.357Z,7.1
2017-12-26T10:11:23.355Z,7.07
2017-12-26T10:12:23.080Z,7.13
2017-12-26T10:13:23.322Z,7.16
2017-12-26T10:14:23.322Z,7.02
2017-12-26T10:15:23.299Z,7.16
2017-12-26T10:16:23.302Z,7.12
2017-12-26T10:17:23.030Z,7.27
2017-12-26T10:18:23.276Z,7.3
2017-12-26T10:19:23.270Z,7.31
2017-12-26T10:20:22.989Z,7.42
2017-12-26T10:21:23.250Z,7.45
2017-12-26T10:22:23.228Z,7.46
2017-12-26T10:23:23.204Z,7.46
2017-12-26T10:24:23.203Z,7.55
2017-12-26T10:25:23.191Z,7.6
2017-12-26T10:26:23.178Z,7.67
2017-12-26T10:27:23.233Z,7.64
2017-12-26T10:28:23.170Z,7.68
2017-12-26T10:29:23.138Z,7.85
2017-12-26T10:30:23.147Z,7.93
2017-12-26T10:31:23.122Z,7.92
2017-12-26T10:32:23.119Z,7.97
2017-12-26T10:33:23.088Z,8.05
2017-12-26T10:34:23.094Z,8.05
2017-12-26T10:35:23.073Z,8.12
2017-12-26T10:36:23.060Z,8.16
2017-12-26T10:37:23.068Z,8.15
2017-12-26T10:38:23.045Z,8.26
2017-12-26T10:39:22.776Z,8.29
2017-12-26T10:40:23.031Z,8.3
2017-12-26T10:41:23.023Z,8.33
2017-12-26T10:42:22.748Z,8.5
2017-12-26T10:43:23.003Z,8.43
2017-12-26T10:44:22.980Z,8.52
2017-12-26T10:45:22.701Z,8.61
2017-12-26T10:46:22.956Z,8.61
2017-12-26T10:47:22.947Z,8.7
2017-12-26T10:48:22.933Z,8.71
2017-12-26T10:49:22.921Z,8.71
2017-12-26T10:50:22.933Z,8.84
2017-12-26T10:51:22.909Z,8.79
2017-12-26T10:52:22.890Z,8.81
2017-12-26T10:53:22.881Z,8.83
2017-12-26T10:54:22.872Z,8.91
2017-12-26T10:55:22.863Z,8.96
2017-12-26T10:56:22.853Z,8.96
2017-12-26T10:57:22.586Z,9.02
2017-12-26T10:58:22.817Z,9.11
2017-12-26T10:59:22.812Z,9.2
2017-12-26T11:00:22.812Z,9.2
2017-12-26T11:01:22.793Z,9.2
2017-12-26T11:02:22.780Z,9.29
2017-12-26T11:03:22.763Z,9.35
2017-12-26T11:04:22.768Z,9.38
2017-12-26T11:05:22.762Z,9.36
2017-12-26T11:06:22.738Z,9.4
2017-12-26T11:07:22.747Z,9.5
2017-12-26T11:08:22.713Z,9.4
2017-12-26T11:09:22.731Z,9.48
2017-12-26T11:10:22.699Z,9.5
2017-12-26T11:11:22.697Z,9.58
2017-12-26T11:12:22.425Z,9.61
2017-12-26T11:13:22.669Z,9.61
2017-12-26T11:14:22.648Z,9.71
2017-12-26T11:15:22.658Z,9.66
2017-12-26T11:16:22.628Z,9.68
2017-12-26T11:17:22.620Z,9.68
2017-12-26T11:18:22.609Z,9.71
2017-12-26T11:19:22.608Z,9.83
2017-12-26T11:20:22.589Z,9.87
2017-12-26T11:21:22.613Z,9.84
2017-12-26T11:22:22.578Z,9.93
2017-12-26T11:23:22.569Z,10.01
2017-12-26T11:24:22.289Z,9.99
2017-12-26T11:25:22.553Z,9.97
2017-12-26T11:26:22.546Z,9.96
2017-12-26T11:27:22.537Z,10.01
2017-12-26T11:28:22.507Z,9.99
2017-12-26T11:29:22.519Z,10.11
2017-12-26T11:30:22.507Z,10.14
2017-12-26T11:31:22.491Z,10.17
2017-12-26T11:32:22.485Z,10.2
2017-12-26T11:33:22.460Z,10.18
2017-12-26T11:34:22.460Z,10.22
2017-12-26T11:35:22.184Z,10.17
2017-12-26T11:36:22.442Z,10.18
2017-12-26T11:37:22.429Z,10.26
2017-12-26T11:38:22.432Z,10.3
2017-12-26T11:39:22.409Z,10.4
2017-12-26T11:40:22.401Z,10.33
2017-12-26T11:41:22.136Z,10.33
2017-12-26T11:42:22.379Z,10.29
2017-12-26T11:43:22.379Z,10.36
2017-12-26T11:44:22.363Z,10.4
2017-12-26T11:45:22.351Z,10.42
2017-12-26T11:46:22.342Z,10.44
2017-12-26T11:47:22.333Z,10.44
2017-12-26T11:48:22.313Z,10.4
2017-12-26T11:49:22.310Z,10.42
2017-12-26T11:50:22.306Z,10.42
2017-12-26T11:51:22.307Z,10.47
2017-12-26T11:52:22.039Z,10.48
2017-12-26T11:53:22.030Z,10.53
2017-12-26T11:54:22.270Z,10.55
2017-12-26T11:55:22.248Z,10.6
2017-12-26T11:56:22.247Z,10.55
2017-12-26T11:57:22.291Z,10.55
2017-12-26T11:58:22.232Z,10.59
2017-12-26T11:59:22.227Z,10.63
2017-12-26T12:00:22.212Z,10.52
2017-12-26T12:01:22.200Z,10.6
2017-12-26T12:02:22.196Z,10.56
2017-12-26T12:03:22.179Z,10.6
2017-12-26T12:04:22.164Z,10.64
2017-12-26T12:05:22.151Z,10.66
2017-12-26T12:06:22.160Z,10.68
2017-12-26T12:07:22.146Z,10.66
2017-12-26T12:08:22.140Z,10.63
2017-12-26T12:09:21.858Z,10.67
2017-12-26T12:10:22.125Z,10.66
2017-12-26T12:11:22.097Z,10.76
2017-12-26T12:12:22.085Z,10.76
2017-12-26T12:13:22.075Z,10.73
2017-12-26T12:14:22.083Z,10.71
2017-12-26T12:15:22.068Z,10.68
2017-12-26T12:16:22.062Z,10.79
2017-12-26T12:17:22.056Z,10.78
2017-12-26T12:18:21.771Z,10.85
2017-12-26T12:19:22.041Z,10.89
2017-12-26T12:20:22.034Z,10.94
2017-12-26T12:21:22.013Z,11.02
2017-12-26T12:22:21.748Z,11.07
2017-12-26T12:23:22.001Z,11.09
2017-12-26T12:24:21.988Z,11.19
2017-12-26T12:25:21.828Z,11.27
2017-12-26T12:26:21.957Z,11.33
2017-12-26T12:27:21.962Z,11.44
2017-12-26T12:28:21.949Z,11.47
2017-12-26T12:29:21.673Z,11.49
2017-12-26T12:30:21.674Z,11.55
2017-12-26T12:31:22.027Z,11.52
2017-12-26T12:32:21.910Z,11.7
2017-12-26T12:33:21.635Z,11.76
2017-12-26T12:34:21.897Z,11.86
2017-12-26T12:35:21.889Z,11.95
2017-12-26T12:36:21.615Z,11.96
2017-12-26T12:37:21.606Z,12.02
2017-12-26T12:38:21.599Z,12.01
2017-12-26T12:39:21.596Z,12.13
2017-12-26T12:40:21.910Z,12.24
2017-12-26T12:41:21.585Z,12.23
2017-12-26T12:42:21.814Z,12.16
2017-12-26T12:43:21.825Z,12.23
2017-12-26T12:44:21.805Z,12.23
2017-12-26T12:45:21.541Z,12.17
2017-12-26T12:46:21.796Z,12.28
2017-12-26T12:47:21.791Z,12.27
2017-12-26T12:48:21.786Z,12.27
2017-12-26T12:49:21.497Z,12.2
2017-12-26T12:50:21.496Z,12.24
2017-12-26T12:51:21.499Z,12.19
2017-12-26T12:52:21.736Z,12.19
2017-12-26T12:53:21.474Z,12.17
2017-12-26T12:54:21.731Z,12.19
2017-12-26T12:55:21.720Z,12.12
2017-12-26T12:56:21.453Z,12.16
2017-12-26T12:57:21.747Z,12.19
2017-12-26T12:58:21.680Z,12.31
2017-12-26T12:59:21.679Z,12.23
2017-12-26T13:00:21.681Z,12.27
2017-12-26T13:01:21.695Z,12.35
2017-12-26T13:02:21.656Z,12.31
2017-12-26T13:03:21.400Z,12.32
2017-12-26T13:04:21.631Z,12.27
2017-12-26T13:05:21.645Z,12.31
2017-12-26T13:06:21.363Z,12.23
2017-12-26T13:07:21.634Z,12.2
2017-12-26T13:08:21.608Z,12.16
2017-12-26T13:09:21.614Z,12.16
2017-12-26T13:10:21.595Z,12.2
2017-12-26T13:11:21.588Z,12.19
2017-12-26T13:12:21.589Z,12.14
2017-12-26T13:13:21.567Z,12.12
2017-12-26T13:14:21.561Z,12.2
2017-12-26T13:15:21.311Z,12.13
2017-12-26T13:16:21.281Z,12.12
2017-12-26T13:17:21.533Z,12.23